Time;durP1;ratioP1;P1;durP2;ratioP2;P2;SDS_P1;SDS_P2;PMS_P1;PMS_P2;Temp;Humidity;BMP_temperature;BMP_pressure;BME280_temperature;BME280_humidity;BME280_pressure;Samples;Min_cycle;Max_cycle;Signal;HPM_P1;HPM_P2
2023/10/29 00:01:43;;;;;;;9.90;3.93;;;10.00;99.90;;;;;;5095054;28;20624;-72
2023/10/29 00:04:10;;;;;;;4.93;3.77;;;9.90;99.90;;;;;;5082358;28;21073;-72
2023/10/29 00:06:37;;;;;;;6.47;4.07;;;10.10;99.90;;;;;;5086882;28;21338;-72
2023/10/29 00:09:04;;;;;;;8.37;5.03;;;10.10;99.90;;;;;;5098544;28;21126;-72
2023/10/29 00:11:31;;;;;;;5.10;4.60;;;10.10;99.90;;;;;;5086502;28;20672;-72
2023/10/29 00:13:59;;;;;;;7.00;3.97;;;10.00;99.90;;;;;;5100128;28;20629;-72
2023/10/29 00:16:26;;;;;;;4.77;4.17;;;10.00;99.90;;;;;;5088233;28;20628;-72
2023/10/29 00:18:53;;;;;;;3.70;3.40;;;9.80;99.90;;;;;;5095118;28;20626;-72
2023/10/29 00:21:20;;;;;;;5.13;4.20;;;9.80;99.90;;;;;;5086954;28;20638;-72
2023/10/29 00:23:46;;;;;;;5.03;4.27;;;9.70;99.90;;;;;;5085565;28;20628;-72
2023/10/29 00:26:13;;;;;;;4.10;3.37;;;9.70;99.90;;;;;;5093656;28;20625;-71
2023/10/29 00:28:40;;;;;;;3.33;2.77;;;9.70;99.90;;;;;;5089936;28;20632;-73
2023/10/29 00:31:08;;;;;;;3.80;2.10;;;9.80;99.90;;;;;;5087893;28;20665;-72
2023/10/29 00:33:35;;;;;;;5.30;3.10;;;9.90;99.90;;;;;;5089527;28;21185;-72
2023/10/29 00:36:02;;;;;;;4.07;2.90;;;9.90;99.90;;;;;;5092030;28;20637;-72
2023/10/29 00:38:29;;;;;;;2.53;2.33;;;9.70;99.90;;;;;;5088709;28;20629;-72
2023/10/29 00:40:56;;;;;;;3.37;2.87;;;9.70;99.90;;;;;;5088809;28;20712;-72
2023/10/29 00:43:23;;;;;;;2.00;1.80;;;9.70;99.90;;;;;;5091453;28;20625;-72
2023/10/29 00:45:53;;;;;;;2.40;2.07;;;9.70;99.90;;;;;;5090299;28;20644;-74
2023/10/29 00:48:21;;;;;;;2.50;1.80;;;9.60;99.90;;;;;;5084011;28;20633;-72
2023/10/29 00:50:48;;;;;;;3.43;3.07;;;9.60;99.90;;;;;;5092821;28;21248;-72
2023/10/29 00:53:16;;;;;;;3.07;2.33;;;9.70;99.90;;;;;;5091540;28;20642;-72
2023/10/29 00:55:43;;;;;;;2.83;2.37;;;9.70;99.90;;;;;;5090643;28;20636;-72
2023/10/29 00:58:11;;;;;;;2.63;1.77;;;9.90;99.90;;;;;;5084992;28;21191;-72
2023/10/29 01:00:37;;;;;;;8.03;3.30;;;10.00;99.90;;;;;;5086779;28;20626;-72
2023/10/29 01:03:04;;;;;;;2.30;1.73;;;9.90;99.90;;;;;;5086414;28;20626;-72
2023/10/29 01:05:32;;;;;;;1.50;1.40;;;9.90;99.90;;;;;;5085507;28;21183;-72
2023/10/29 01:08:00;;;;;;;3.60;1.73;;;9.90;99.90;;;;;;5085953;28;21210;-73
2023/10/29 01:10:27;;;;;;;2.10;1.70;;;10.00;99.90;;;;;;5086158;28;20675;-73
2023/10/29 01:12:54;;;;;;;2.43;1.67;;;10.10;99.90;;;;;;5090733;28;20643;-73
2023/10/29 01:15:20;;;;;;;1.80;1.40;;;10.10;99.90;;;;;;5091030;28;20639;-73
2023/10/29 01:17:47;;;;;;;1.67;1.37;;;10.10;99.90;;;;;;5096369;28;20719;-73
2023/10/29 01:20:14;;;;;;;11.93;2.23;;;10.10;99.90;;;;;;5092081;28;20625;-73
2023/10/29 01:22:42;;;;;;;2.87;1.80;;;10.20;99.90;;;;;;5086553;28;20626;-73
2023/10/29 01:25:10;;;;;;;3.60;2.13;;;10.30;99.90;;;;;;5103906;28;20624;-73
2023/10/29 01:27:37;;;;;;;2.43;2.00;;;10.20;99.90;;;;;;5097115;28;20946;-73
2023/10/29 01:30:05;;;;;;;1.63;1.53;;;10.20;99.90;;;;;;5086525;28;20625;-73
2023/10/29 01:32:32;;;;;;;2.63;1.60;;;10.10;99.90;;;;;;5086122;28;20644;-73
2023/10/29 01:34:59;;;;;;;3.23;2.33;;;10.20;99.90;;;;;;5084976;28;20816;-72
2023/10/29 01:37:26;;;;;;;1.53;1.30;;;10.20;99.90;;;;;;5092725;28;20625;-73
2023/10/29 01:39:55;;;;;;;1.13;1.03;;;10.30;99.90;;;;;;5090478;28;20637;-73
2023/10/29 01:42:22;;;;;;;1.30;1.20;;;10.20;99.90;;;;;;5091267;28;20627;-72
2023/10/29 01:44:48;;;;;;;1.20;1.20;;;10.20;99.90;;;;;;5087426;28;20632;-72
2023/10/29 01:47:15;;;;;;;1.30;1.27;;;10.20;99.90;;;;;;5087873;28;21208;-72
2023/10/29 01:49:42;;;;;;;1.50;1.40;;;10.20;99.90;;;;;;5086055;28;20629;-72
2023/10/29 01:52:09;;;;;;;1.20;1.10;;;10.20;99.90;;;;;;5091305;28;21023;-73
2023/10/29 01:54:36;;;;;;;1.83;1.73;;;10.20;99.90;;;;;;5086061;28;20608;-72
2023/10/29 01:57:04;;;;;;;2.60;1.40;;;10.20;99.90;;;;;;5092379;28;20624;-72
2023/10/29 01:59:32;;;;;;;3.20;1.63;;;10.20;99.90;;;;;;5088970;28;21253;-72
2023/10/29 02:01:59;;;;;;;1.47;1.23;;;10.30;99.90;;;;;;5084686;28;20629;-72
2023/10/29 02:04:27;;;;;;;1.53;1.43;;;10.30;99.90;;;;;;5095478;28;20916;-72
2023/10/29 02:06:53;;;;;;;2.13;1.93;;;10.30;99.90;;;;;;5089059;28;20954;-72
2023/10/29 02:09:21;;;;;;;1.37;0.90;;;10.30;99.90;;;;;;5090740;28;20644;-72
2023/10/29 02:11:50;;;;;;;1.53;1.40;;;10.20;99.90;;;;;;5099776;28;20664;-72
2023/10/29 02:14:18;;;;;;;6.27;1.43;;;10.30;99.90;;;;;;5101909;28;20635;-72
2023/10/29 02:16:49;;;;;;;1.10;1.00;;;10.20;99.90;;;;;;5087778;28;21062;-73
2023/10/29 02:19:16;;;;;;;1.40;1.10;;;10.20;99.90;;;;;;5090733;28;20715;-73
2023/10/29 02:21:45;;;;;;;2.30;2.00;;;10.20;99.90;;;;;;5096567;28;20655;-73
2023/10/29 02:24:14;;;;;;;2.07;1.83;;;10.20;99.90;;;;;;5101510;28;21245;-73
2023/10/29 02:26:42;;;;;;;1.47;1.37;;;10.20;99.90;;;;;;5085638;28;20632;-73
2023/10/29 02:29:08;;;;;;;1.97;1.77;;;10.20;99.90;;;;;;5086546;28;21251;-73
2023/10/29 02:31:36;;;;;;;1.27;1.17;;;10.10;99.90;;;;;;5082881;28;20668;-74
2023/10/29 02:34:04;;;;;;;1.00;0.70;;;10.10;99.90;;;;;;5085564;28;20744;-74
2023/10/29 02:36:32;;;;;;;1.43;0.80;;;10.20;99.90;;;;;;5085242;28;20629;-74
2023/10/29 02:39:00;;;;;;;0.90;0.87;;;10.20;99.90;;;;;;5091237;28;21167;-75
2023/10/29 02:41:29;;;;;;;5.30;1.30;;;10.20;99.90;;;;;;5082193;28;20955;-75
2023/10/29 02:43:58;;;;;;;1.00;0.73;;;10.20;99.90;;;;;;5089330;28;20751;-75
2023/10/29 02:46:26;;;;;;;1.23;1.13;;;10.10;99.90;;;;;;5087141;28;20686;-74
2023/10/29 02:48:54;;;;;;;1.67;1.10;;;10.10;99.90;;;;;;5091510;28;20661;-74
2023/10/29 02:51:22;;;;;;;1.10;1.00;;;10.10;99.90;;;;;;5091652;28;20676;-74
2023/10/29 02:53:50;;;;;;;1.37;1.27;;;10.10;99.90;;;;;;5096404;28;20651;-75
2023/10/29 02:56:18;;;;;;;2.77;1.60;;;10.00;99.90;;;;;;5089564;28;21144;-74
2023/10/29 02:58:48;;;;;;;1.60;1.00;;;10.00;99.90;;;;;;5085542;28;20732;-74
2023/10/29 03:01:16;;;;;;;2.83;1.77;;;10.20;99.90;;;;;;5092695;28;20632;-74
2023/10/29 03:03:45;;;;;;;1.10;0.83;;;10.20;99.90;;;;;;5100231;28;20969;-74
2023/10/29 03:06:13;;;;;;;1.40;1.33;;;10.10;99.90;;;;;;5082570;28;20632;-75
2023/10/29 03:08:42;;;;;;;1.63;1.53;;;10.00;99.90;;;;;;5087586;28;21231;-74
2023/10/29 03:11:11;;;;;;;1.00;0.90;;;9.90;99.90;;;;;;5090955;28;21119;-74
2023/10/29 03:13:39;;;;;;;1.20;0.90;;;10.00;99.90;;;;;;5096020;28;20636;-74
2023/10/29 03:16:08;;;;;;;1.33;1.00;;;10.10;99.90;;;;;;5090765;28;21177;-74
2023/10/29 03:18:35;;;;;;;1.80;1.40;;;9.90;99.90;;;;;;5100010;28;20979;-74
2023/10/29 03:21:02;;;;;;;2.20;1.10;;;9.80;99.90;;;;;;5100139;28;20979;-74
2023/10/29 03:23:29;;;;;;;1.43;1.20;;;9.80;99.90;;;;;;5102633;28;20617;-74
2023/10/29 03:26:02;;;;;;;0.93;0.83;;;9.70;99.90;;;;;;5090259;28;20727;-74
2023/10/29 03:28:30;;;;;;;0.90;0.90;;;9.60;99.90;;;;;;5083078;28;20635;-74
2023/10/29 03:30:58;;;;;;;1.10;1.10;;;9.50;99.90;;;;;;5090031;28;21209;-74
2023/10/29 03:33:26;;;;;;;0.90;0.90;;;9.50;99.90;;;;;;5090324;28;20626;-74
2023/10/29 03:35:55;;;;;;;0.97;0.70;;;9.40;99.90;;;;;;5093014;28;20633;-74
2023/10/29 03:38:22;;;;;;;1.47;0.70;;;9.40;99.90;;;;;;5090070;28;20625;-74
2023/10/29 03:40:50;;;;;;;1.43;1.33;;;9.40;99.90;;;;;;5091943;28;20633;-74
2023/10/29 03:43:18;;;;;;;3.00;1.13;;;9.60;99.90;;;;;;5090115;28;20723;-74
2023/10/29 03:45:46;;;;;;;1.20;1.10;;;9.50;99.90;;;;;;5092285;28;20621;-74
2023/10/29 03:48:15;;;;;;;1.83;1.50;;;9.50;99.90;;;;;;5086400;28;21096;-74
2023/10/29 03:50:44;;;;;;;2.23;1.17;;;9.60;99.90;;;;;;5096245;28;20682;-74
2023/10/29 03:53:12;;;;;;;1.07;0.97;;;9.60;99.90;;;;;;5089216;28;21126;-74
2023/10/29 03:55:40;;;;;;;1.47;1.37;;;9.60;99.90;;;;;;5084431;28;20746;-74
2023/10/29 03:58:08;;;;;;;2.10;1.77;;;9.50;99.90;;;;;;5088286;28;20733;-74
2023/10/29 04:00:35;;;;;;;1.07;0.97;;;9.60;99.90;;;;;;5085412;28;20625;-74
2023/10/29 04:03:05;;;;;;;1.67;1.57;;;9.70;99.90;;;;;;5089539;28;20640;-74
2023/10/29 04:05:36;;;;;;;1.43;0.90;;;9.70;99.90;;;;;;5088733;28;20643;-74
2023/10/29 04:08:05;;;;;;;4.87;1.43;;;9.70;99.90;;;;;;5085490;28;21194;-74
2023/10/29 04:10:34;;;;;;;2.50;1.13;;;9.80;99.90;;;;;;5085731;28;20625;-75
2023/10/29 04:13:01;;;;;;;1.43;1.13;;;9.80;99.90;;;;;;5087620;28;20664;-74
2023/10/29 04:15:29;;;;;;;1.00;1.00;;;9.80;99.90;;;;;;5091763;28;20620;-74
2023/10/29 04:17:56;;;;;;;1.10;1.00;;;9.90;99.90;;;;;;5093110;28;20625;-74
2023/10/29 04:20:24;;;;;;;0.87;0.67;;;9.90;99.90;;;;;;5098287;28;21500;-74
2023/10/29 04:22:52;;;;;;;0.93;0.93;;;9.90;99.90;;;;;;5088200;28;20621;-74
2023/10/29 04:25:21;;;;;;;0.70;0.60;;;9.90;99.90;;;;;;5100333;28;21180;-74
2023/10/29 04:27:48;;;;;;;1.20;1.00;;;9.90;99.90;;;;;;5093025;28;20621;-74
2023/10/29 04:30:16;;;;;;;1.33;1.07;;;9.90;99.90;;;;;;5092395;28;21063;-74
2023/10/29 04:32:44;;;;;;;0.90;0.77;;;9.90;99.90;;;;;;5102414;28;20767;-74
2023/10/29 04:35:12;;;;;;;0.70;0.70;;;9.90;99.90;;;;;;5083771;28;20670;-74
2023/10/29 04:37:40;;;;;;;0.70;0.70;;;9.90;99.90;;;;;;5093661;28;20633;-74
2023/10/29 04:40:09;;;;;;;0.70;0.70;;;10.00;99.90;;;;;;5099444;28;21184;-74
2023/10/29 04:42:38;;;;;;;1.47;0.90;;;10.10;99.90;;;;;;5107161;28;20772;-75
2023/10/29 04:45:06;;;;;;;1.40;1.13;;;10.10;99.90;;;;;;5094434;28;20680;-74
2023/10/29 04:47:35;;;;;;;1.00;0.80;;;10.00;99.90;;;;;;5087539;28;20633;-74
2023/10/29 04:50:06;;;;;;;0.80;0.80;;;10.10;99.90;;;;;;5088249;28;20644;-74
2023/10/29 04:52:35;;;;;;;1.70;1.10;;;10.10;99.90;;;;;;5082187;28;21475;-75
2023/10/29 04:55:05;;;;;;;0.97;0.83;;;10.10;99.90;;;;;;5087318;28;20983;-75
2023/10/29 04:57:31;;;;;;;0.90;0.70;;;10.00;99.90;;;;;;5088629;28;20629;-74
2023/10/29 05:00:00;;;;;;;1.00;0.90;;;10.10;99.90;;;;;;5088754;28;20620;-75
2023/10/29 05:02:27;;;;;;;1.43;0.70;;;10.00;99.90;;;;;;5088206;28;20621;-74
2023/10/29 05:04:54;;;;;;;0.77;0.77;;;10.00;99.90;;;;;;5093868;28;20989;-75
2023/10/29 05:07:21;;;;;;;1.90;0.80;;;9.90;99.90;;;;;;5092407;28;20632;-74
2023/10/29 05:09:48;;;;;;;0.97;0.87;;;10.00;99.90;;;;;;5093256;28;20681;-75
2023/10/29 05:12:15;;;;;;;1.90;1.10;;;10.00;99.90;;;;;;5097924;28;20682;-75
2023/10/29 05:14:42;;;;;;;1.60;1.13;;;10.00;99.90;;;;;;5090794;28;20625;-76
2023/10/29 05:17:11;;;;;;;0.53;0.53;;;9.90;99.90;;;;;;5088087;28;20620;-75
2023/10/29 05:19:39;;;;;;;0.80;0.67;;;10.00;99.90;;;;;;5085556;28;20625;-75
2023/10/29 05:22:05;;;;;;;1.67;1.10;;;9.90;99.90;;;;;;5087063;28;21249;-75
2023/10/29 05:24:32;;;;;;;2.77;1.00;;;9.90;99.90;;;;;;5089791;28;20639;-75
2023/10/29 05:26:59;;;;;;;2.20;1.00;;;9.90;99.90;;;;;;5092908;28;20970;-74
2023/10/29 05:29:26;;;;;;;2.10;0.90;;;10.00;99.90;;;;;;5102053;28;20624;-75
2023/10/29 05:31:53;;;;;;;1.30;1.10;;;10.00;99.90;;;;;;5092206;28;20667;-74
2023/10/29 05:34:21;;;;;;;1.67;0.93;;;9.90;99.90;;;;;;5084896;28;20629;-74
2023/10/29 05:36:48;;;;;;;0.67;0.67;;;10.00;99.90;;;;;;5083527;28;20707;-74
2023/10/29 05:39:15;;;;;;;0.90;0.90;;;10.00;99.90;;;;;;5102872;28;20661;-74
2023/10/29 05:41:42;;;;;;;1.37;1.27;;;10.10;99.90;;;;;;5088220;28;20675;-74
2023/10/29 05:44:09;;;;;;;0.73;0.73;;;10.10;99.90;;;;;;5096947;28;20643;-74
2023/10/29 05:46:36;;;;;;;0.90;0.90;;;10.10;99.90;;;;;;5085179;28;20629;-74
2023/10/29 05:49:03;;;;;;;1.40;1.30;;;10.10;99.90;;;;;;5085052;28;20624;-74
2023/10/29 05:51:31;;;;;;;1.20;0.97;;;10.10;99.90;;;;;;5087210;28;20625;-74
2023/10/29 05:53:58;;;;;;;2.63;1.10;;;10.10;99.90;;;;;;5087592;28;20631;-73
2023/10/29 05:56:25;;;;;;;1.63;1.20;;;10.10;99.90;;;;;;5086995;28;20714;-74
2023/10/29 05:58:52;;;;;;;1.23;0.90;;;10.20;99.90;;;;;;5090965;28;20620;-74
2023/10/29 06:01:18;;;;;;;1.77;1.50;;;10.30;99.90;;;;;;5087418;28;20621;-74
2023/10/29 06:03:45;;;;;;;0.90;0.80;;;10.20;99.90;;;;;;5088684;28;20625;-74
2023/10/29 06:06:12;;;;;;;0.93;0.93;;;10.20;99.90;;;;;;5085739;28;20724;-74
2023/10/29 06:08:40;;;;;;;1.23;0.77;;;10.30;99.90;;;;;;5091367;28;20613;-74
2023/10/29 06:11:07;;;;;;;0.83;0.83;;;10.20;99.90;;;;;;5094290;28;21078;-74
2023/10/29 06:13:34;;;;;;;1.47;1.07;;;10.20;99.60;;;;;;5093252;28;20770;-74
2023/10/29 06:16:01;;;;;;;1.17;1.07;;;10.30;99.90;;;;;;5091015;28;20724;-74
2023/10/29 06:18:27;;;;;;;1.60;1.17;;;10.20;99.90;;;;;;5090071;28;20629;-74
2023/10/29 06:20:55;;;;;;;1.07;0.97;;;10.20;99.90;;;;;;5088234;28;21200;-74
2023/10/29 06:23:21;;;;;;;1.27;1.17;;;10.20;99.90;;;;;;5090190;28;20756;-74
2023/10/29 06:25:49;;;;;;;1.47;1.37;;;10.30;99.90;;;;;;5089120;28;20749;-72
2023/10/29 06:28:16;;;;;;;2.70;1.10;;;10.30;99.90;;;;;;5087924;28;20617;-72
2023/10/29 06:30:44;;;;;;;1.00;0.97;;;10.40;99.90;;;;;;5088674;28;21172;-72
2023/10/29 06:33:10;;;;;;;1.77;1.17;;;10.40;99.90;;;;;;5089499;28;21256;-71
2023/10/29 06:35:38;;;;;;;2.37;1.20;;;10.40;99.90;;;;;;5100994;28;20628;-71
2023/10/29 06:38:05;;;;;;;1.27;1.03;;;10.40;99.90;;;;;;5104960;28;20632;-73
2023/10/29 06:40:32;;;;;;;1.07;1.07;;;10.40;99.90;;;;;;5093705;28;20629;-71
2023/10/29 06:43:01;;;;;;;1.90;1.10;;;10.40;99.90;;;;;;5088754;28;21240;-72
2023/10/29 06:45:28;;;;;;;0.90;0.90;;;10.40;99.90;;;;;;5088806;28;20686;-71
2023/10/29 06:47:55;;;;;;;1.10;0.87;;;10.50;99.90;;;;;;5088212;28;20625;-71
2023/10/29 06:50:21;;;;;;;1.80;0.70;;;10.50;99.90;;;;;;5090213;28;21080;-71
2023/10/29 06:52:48;;;;;;;3.00;2.63;;;10.50;99.90;;;;;;5089530;28;20661;-73
2023/10/29 06:55:15;;;;;;;3.37;2.97;;;10.50;99.90;;;;;;5088164;28;20631;-73
2023/10/29 06:57:42;;;;;;;2.77;2.27;;;10.60;99.90;;;;;;5086014;28;20667;-72
2023/10/29 07:00:11;;;;;;;3.77;3.47;;;10.60;99.90;;;;;;5091903;28;20657;-75
2023/10/29 07:02:38;;;;;;;3.40;2.33;;;10.60;99.90;;;;;;5088618;28;20629;-73
2023/10/29 07:05:06;;;;;;;2.10;1.47;;;10.70;99.90;;;;;;5091260;28;20625;-75
2023/10/29 07:07:34;;;;;;;1.83;1.37;;;10.70;99.90;;;;;;5094758;28;20621;-72
2023/10/29 07:10:01;;;;;;;1.60;1.20;;;10.70;99.90;;;;;;5088226;28;20647;-80
2023/10/29 07:12:28;;;;;;;1.50;1.40;;;10.80;99.90;;;;;;5095413;28;21180;-73
2023/10/29 07:14:56;;;;;;;1.40;1.30;;;10.80;99.90;;;;;;5096036;28;20748;-73
2023/10/29 07:17:24;;;;;;;1.10;1.03;;;10.80;99.90;;;;;;5092112;28;20205;-72
2023/10/29 07:19:52;;;;;;;1.50;1.10;;;10.90;99.90;;;;;;5088254;28;21378;-72
2023/10/29 07:22:19;;;;;;;1.17;0.90;;;10.90;99.90;;;;;;5088113;28;20713;-71
2023/10/29 07:24:46;;;;;;;3.17;1.33;;;10.90;99.90;;;;;;5098709;28;20624;-71
2023/10/29 07:27:13;;;;;;;1.85;1.10;;;11.00;99.90;;;;;;5091866;28;21294;-71
2023/10/29 07:29:42;;;;;;;1.00;0.90;;;11.00;99.90;;;;;;5086635;28;20209;-73
2023/10/29 07:32:09;;;;;;;1.20;1.10;;;11.10;99.90;;;;;;5078071;28;20990;-74
2023/10/29 07:34:37;;;;;;;1.30;1.20;;;11.10;99.90;;;;;;5088456;28;20986;-70
2023/10/29 07:37:04;;;;;;;1.30;1.20;;;11.20;99.90;;;;;;5085287;28;20741;-71
2023/10/29 07:39:31;;;;;;;1.17;0.90;;;11.30;99.90;;;;;;5087232;28;20950;-71
2023/10/29 07:41:57;;;;;;;1.00;0.87;;;11.30;99.80;;;;;;5087687;28;20630;-72
2023/10/29 07:44:25;;;;;;;1.60;1.27;;;11.40;99.40;;;;;;5087025;28;20621;-70
2023/10/29 07:46:51;;;;;;;0.93;0.93;;;11.50;99.50;;;;;;5080805;28;20912;-79
2023/10/29 07:49:18;;;;;;;0.60;0.60;;;11.50;99.90;;;;;;5088572;28;20729;-80
2023/10/29 07:51:51;;;;;;;0.97;0.87;;;11.60;98.80;;;;;;5086730;28;20645;-78
2023/10/29 07:54:18;;;;;;;2.80;1.20;;;11.60;99.30;;;;;;5094879;28;20668;-73
2023/10/29 07:56:45;;;;;;;0.70;0.70;;;11.70;98.60;;;;;;5088731;28;21188;-73
2023/10/29 07:59:12;;;;;;;1.27;1.10;;;11.70;98.80;;;;;;5088776;28;20716;-72
2023/10/29 08:01:39;;;;;;;2.10;1.07;;;11.80;99.00;;;;;;5082129;28;20640;-73
2023/10/29 08:04:06;;;;;;;1.20;0.90;;;11.80;99.90;;;;;;5089752;28;20625;-74
2023/10/29 08:06:33;;;;;;;2.70;1.13;;;11.80;99.90;;;;;;5083190;28;21039;-73
2023/10/29 08:09:01;;;;;;;0.83;0.80;;;11.70;99.90;;;;;;5089763;28;20625;-71
2023/10/29 08:11:28;;;;;;;1.57;0.80;;;11.80;99.90;;;;;;5087497;28;21094;-71
2023/10/29 08:13:55;;;;;;;0.97;0.97;;;11.90;99.80;;;;;;5086831;28;20677;-71
2023/10/29 08:16:22;;;;;;;0.77;0.77;;;11.90;99.70;;;;;;5086727;28;21074;-71
2023/10/29 08:18:50;;;;;;;0.93;0.93;;;12.10;99.90;;;;;;5090776;28;20719;-71
2023/10/29 08:21:17;;;;;;;1.10;1.00;;;12.20;99.30;;;;;;5091778;28;20668;-71
2023/10/29 08:23:44;;;;;;;1.73;1.20;;;12.30;99.60;;;;;;5087462;28;21034;-71
2023/10/29 08:26:12;;;;;;;1.43;1.00;;;12.30;99.50;;;;;;5087243;28;20958;-71
2023/10/29 08:28:39;;;;;;;1.30;0.90;;;12.40;99.90;;;;;;5086147;28;20629;-71
2023/10/29 08:31:08;;;;;;;0.90;0.90;;;12.40;99.90;;;;;;5087005;28;20630;-71
2023/10/29 08:33:34;;;;;;;1.67;1.10;;;12.50;99.90;;;;;;5087591;28;20700;-71
2023/10/29 08:36:01;;;;;;;1.00;0.90;;;12.50;99.90;;;;;;5085175;28;20635;-71
2023/10/29 08:38:28;;;;;;;1.37;1.10;;;12.60;99.90;;;;;;5086503;28;20734;-71
2023/10/29 08:40:55;;;;;;;1.67;1.50;;;12.60;99.80;;;;;;5094498;28;20634;-71
2023/10/29 08:43:23;;;;;;;0.90;0.90;;;12.70;99.70;;;;;;5092625;28;20639;-71
2023/10/29 08:45:49;;;;;;;0.93;0.90;;;12.70;99.60;;;;;;5092011;28;20678;-71
2023/10/29 08:48:16;;;;;;;1.00;0.60;;;12.80;99.10;;;;;;5087314;28;20621;-71
2023/10/29 08:50:43;;;;;;;0.80;0.80;;;12.80;99.20;;;;;;5091325;28;20632;-70
2023/10/29 08:53:10;;;;;;;1.10;0.70;;;12.80;99.10;;;;;;5093491;28;20672;-71
2023/10/29 08:55:37;;;;;;;1.60;0.80;;;12.80;99.40;;;;;;5087604;28;20636;-72
2023/10/29 08:58:04;;;;;;;0.63;0.63;;;12.90;99.50;;;;;;5089608;28;20639;-72
2023/10/29 09:00:32;;;;;;;3.73;0.93;;;12.90;99.80;;;;;;5077807;28;21223;-72
2023/10/29 09:02:59;;;;;;;2.13;1.47;;;12.90;99.90;;;;;;5086209;28;20621;-72
2023/10/29 09:05:27;;;;;;;1.67;1.10;;;13.00;99.80;;;;;;5085863;28;21255;-72
2023/10/29 09:07:54;;;;;;;2.57;1.50;;;13.10;99.90;;;;;;5085890;28;20633;-72
2023/10/29 09:10:20;;;;;;;2.57;1.00;;;13.10;99.90;;;;;;5085681;28;20622;-72
2023/10/29 09:12:48;;;;;;;1.43;1.00;;;13.20;99.90;;;;;;5086195;28;20629;-72
2023/10/29 09:15:15;;;;;;;0.90;0.90;;;13.20;99.40;;;;;;5081413;28;20650;-72
2023/10/29 09:17:43;;;;;;;1.10;0.87;;;13.30;98.80;;;;;;5087635;28;20617;-72
2023/10/29 09:20:12;;;;;;;1.27;0.90;;;13.50;99.10;;;;;;5083866;28;20636;-72
2023/10/29 09:22:38;;;;;;;0.97;0.90;;;13.50;98.60;;;;;;5085238;28;20622;-72
2023/10/29 09:25:06;;;;;;;0.90;0.90;;;13.60;98.20;;;;;;5088390;28;20638;-72
2023/10/29 09:27:33;;;;;;;1.13;1.03;;;13.70;98.90;;;;;;5082234;28;20625;-72
2023/10/29 09:30:00;;;;;;;0.90;0.90;;;13.70;98.60;;;;;;5085621;28;20633;-72
2023/10/29 09:32:27;;;;;;;1.87;1.03;;;13.80;98.10;;;;;;5084016;28;20631;-72
2023/10/29 09:34:55;;;;;;;1.20;1.10;;;13.70;98.40;;;;;;5083095;28;20673;-72
2023/10/29 09:37:22;;;;;;;0.90;0.80;;;13.70;98.50;;;;;;5084652;28;20621;-72
2023/10/29 09:39:49;;;;;;;1.10;1.10;;;13.70;98.60;;;;;;5083558;28;20723;-72
2023/10/29 09:42:18;;;;;;;3.27;1.00;;;13.70;98.10;;;;;;5087542;28;20624;-72
2023/10/29 09:44:49;;;;;;;2.20;1.50;;;13.80;98.50;;;;;;5085760;28;20700;-72
2023/10/29 09:47:17;;;;;;;1.20;1.10;;;13.70;98.50;;;;;;5087497;28;20627;-72
2023/10/29 09:49:44;;;;;;;1.13;1.00;;;13.80;98.60;;;;;;5085714;28;20630;-72
2023/10/29 09:52:14;;;;;;;1.23;1.13;;;13.90;98.20;;;;;;5085096;28;20987;-72
2023/10/29 09:54:41;;;;;;;1.27;1.13;;;13.90;97.90;;;;;;5092809;28;21040;-72
2023/10/29 09:57:11;;;;;;;1.33;1.23;;;14.00;97.20;;;;;;5088680;28;20737;-72
2023/10/29 09:59:37;;;;;;;1.17;1.07;;;14.00;97.70;;;;;;5090066;28;20629;-72
2023/10/29 10:02:05;;;;;;;1.30;1.20;;;14.00;98.10;;;;;;5090014;28;20655;-72
2023/10/29 10:04:32;;;;;;;2.27;1.33;;;14.10;97.80;;;;;;5090065;28;20638;-72
2023/10/29 10:06:59;;;;;;;1.87;1.00;;;14.20;97.50;;;;;;5089558;28;20640;-72
2023/10/29 10:09:28;;;;;;;1.53;1.43;;;14.30;97.70;;;;;;5089341;28;20634;-72
2023/10/29 10:12:05;;;;;;;1.30;1.13;;;14.30;98.10;;;;;;5090454;28;21066;-72
2023/10/29 10:14:31;;;;;;;1.20;1.10;;;14.30;97.80;;;;;;5088244;28;20792;-72
2023/10/29 10:17:08;;;;;;;1.53;1.13;;;14.30;97.30;;;;;;5092996;28;21261;-72
2023/10/29 10:19:35;;;;;;;2.13;1.47;;;14.40;97.20;;;;;;5094168;28;20667;-72
2023/10/29 10:22:03;;;;;;;1.13;1.03;;;14.40;97.50;;;;;;5088904;28;20622;-72
2023/10/29 10:24:39;;;;;;;10.30;1.97;;;14.40;97.30;;;;;;5089454;28;20678;-72
2023/10/29 10:27:06;;;;;;;1.13;1.03;;;14.40;97.50;;;;;;5088617;28;20634;-72
2023/10/29 10:29:33;;;;;;;2.03;1.63;;;14.40;97.30;;;;;;5091485;28;20634;-72
2023/10/29 10:32:02;;;;;;;1.80;1.70;;;14.40;97.40;;;;;;5090056;28;20651;-72
2023/10/29 10:34:30;;;;;;;1.50;1.40;;;14.40;97.90;;;;;;5097908;28;21613;-72
2023/10/29 10:37:00;;;;;;;1.60;1.10;;;14.40;97.90;;;;;;5089124;28;20631;-72
2023/10/29 10:39:29;;;;;;;2.40;1.73;;;14.40;98.50;;;;;;5090305;28;20723;-72
2023/10/29 10:41:58;;;;;;;1.83;1.73;;;14.40;98.30;;;;;;5089042;28;20618;-72
2023/10/29 10:44:27;;;;;;;1.70;1.40;;;14.40;98.50;;;;;;5089076;28;20993;-72
2023/10/29 10:46:56;;;;;;;1.63;1.53;;;14.40;98.20;;;;;;5091086;28;20626;-72
2023/10/29 10:49:24;;;;;;;1.70;1.60;;;14.40;98.00;;;;;;5095962;28;20635;-72
2023/10/29 10:51:54;;;;;;;1.60;1.50;;;14.40;98.40;;;;;;5088556;28;20628;-72
2023/10/29 10:54:22;;;;;;;2.33;1.63;;;14.50;98.60;;;;;;5088985;28;20679;-72
2023/10/29 10:56:50;;;;;;;1.67;1.57;;;14.50;98.00;;;;;;5088314;28;20737;-72
2023/10/29 10:59:20;;;;;;;3.50;1.70;;;14.60;98.40;;;;;;5088872;28;20623;-72
2023/10/29 11:01:48;;;;;;;1.97;1.87;;;14.60;98.00;;;;;;5088548;28;21186;-72
2023/10/29 11:04:15;;;;;;;2.03;1.33;;;14.70;97.80;;;;;;5088832;28;20627;-72
2023/10/29 11:06:43;;;;;;;2.00;1.50;;;14.60;97.90;;;;;;5089762;28;20663;-72
2023/10/29 11:09:12;;;;;;;1.27;1.17;;;14.60;97.60;;;;;;5088607;28;20648;-72
2023/10/29 11:11:45;;;;;;;2.63;1.50;;;14.70;97.70;;;;;;5082994;28;20739;-72
2023/10/29 11:14:13;;;;;;;1.60;1.40;;;14.60;97.40;;;;;;5087863;28;20790;-72
2023/10/29 11:16:48;;;;;;;2.00;1.50;;;14.60;97.50;;;;;;5087663;28;20747;-72
2023/10/29 11:19:39;;;;;;;1.20;1.10;;;14.70;97.20;;;;;;5091584;28;20630;-72
2023/10/29 11:22:20;;;;;;;1.77;1.60;;;14.70;97.10;;;;;;5087333;28;20655;-72
2023/10/29 11:25:23;;;;;;;1.50;1.40;;;14.90;96.80;;;;;;5088375;28;20723;-72
2023/10/29 11:27:50;;;;;;;1.43;1.20;;;14.90;96.40;;;;;;5077813;28;20637;-72
2023/10/29 11:30:18;;;;;;;0.80;0.80;;;15.00;96.20;;;;;;5088178;28;20628;-72
2023/10/29 11:32:47;;;;;;;1.50;1.40;;;15.20;96.30;;;;;;5087320;28;20633;-73
2023/10/29 11:35:22;;;;;;;1.27;1.13;;;15.30;96.00;;;;;;5087874;28;20671;-72
2023/10/29 11:37:50;;;;;;;1.40;1.20;;;15.40;95.50;;;;;;5087744;28;20990;-72
2023/10/29 11:40:33;;;;;;;1.40;1.07;;;15.50;94.80;;;;;;5081347;28;20627;-72
2023/10/29 11:43:18;;;;;;;1.40;1.30;;;15.60;94.10;;;;;;5085280;28;20652;-72
2023/10/29 11:45:56;;;;;;;2.53;1.30;;;15.80;93.60;;;;;;5088545;28;20646;-72
2023/10/29 11:48:25;;;;;;;1.23;1.10;;;16.10;92.40;;;;;;5080446;28;20636;-72
2023/10/29 11:51:20;;;;;;;0.70;0.70;;;16.20;92.00;;;;;;5092982;28;20735;-72
2023/10/29 11:53:48;;;;;;;1.30;1.20;;;16.30;91.70;;;;;;5088289;28;20666;-72
2023/10/29 11:56:16;;;;;;;0.80;0.77;;;16.40;91.80;;;;;;5094250;28;20979;-72
2023/10/29 11:58:43;;;;;;;1.37;0.80;;;16.40;90.70;;;;;;5087255;28;20709;-73
2023/10/29 12:01:10;;;;;;;1.10;1.00;;;16.50;90.10;;;;;;5094896;28;21067;-70
2023/10/29 12:03:38;;;;;;;0.73;0.73;;;16.60;90.10;;;;;;5087465;28;20668;-71
2023/10/29 12:06:05;;;;;;;3.93;1.00;;;16.60;90.10;;;;;;5091366;28;20625;-72
2023/10/29 12:08:33;;;;;;;0.60;0.60;;;16.60;89.10;;;;;;5087265;28;20983;-71
2023/10/29 12:11:00;;;;;;;0.63;0.63;;;16.60;88.60;;;;;;5088296;28;20735;-71
2023/10/29 12:13:40;;;;;;;1.13;0.90;;;16.80;87.50;;;;;;5086902;28;21185;-71
2023/10/29 12:16:08;;;;;;;1.47;0.80;;;16.80;86.40;;;;;;5087078;28;20624;-71
2023/10/29 12:18:36;;;;;;;0.50;0.50;;;17.10;86.40;;;;;;5085243;28;20632;-71
2023/10/29 12:21:06;;;;;;;2.00;0.77;;;17.00;86.80;;;;;;5087569;28;20730;-71
2023/10/29 12:23:33;;;;;;;0.73;0.60;;;17.20;84.70;;;;;;5093167;28;20974;-71
2023/10/29 12:26:04;;;;;;;1.40;0.67;;;17.40;83.80;;;;;;5087253;28;20636;-72
2023/10/29 12:28:32;;;;;;;0.73;0.73;;;17.60;83.50;;;;;;5086647;28;20669;-71
2023/10/29 12:30:59;;;;;;;2.30;1.27;;;17.60;82.90;;;;;;5086733;28;20622;-71
2023/10/29 12:33:27;;;;;;;0.67;0.47;;;17.50;82.10;;;;;;5086305;28;20661;-71
2023/10/29 12:35:56;;;;;;;0.60;0.60;;;17.60;83.50;;;;;;5086785;28;20679;-71
2023/10/29 12:38:24;;;;;;;0.43;0.43;;;17.60;82.60;;;;;;5086683;28;20992;-71
2023/10/29 12:41:04;;;;;;;1.23;0.70;;;17.70;76.80;;;;;;5086963;28;20726;-71
2023/10/29 12:43:39;;;;;;;1.93;0.53;;;17.80;77.40;;;;;;5085827;28;20716;-71
2023/10/29 12:46:07;;;;;;;1.17;0.90;;;17.90;76.70;;;;;;5086696;28;20634;-71
2023/10/29 12:48:36;;;;;;;0.70;0.60;;;18.00;76.20;;;;;;5086120;28;21156;-72
2023/10/29 12:51:03;;;;;;;1.00;0.73;;;18.00;79.90;;;;;;5091522;28;20660;-72
2023/10/29 12:53:32;;;;;;;0.60;0.60;;;17.90;75.50;;;;;;5087432;28;20620;-72